sensor_id;sensor_type;location;lat;lon;timestamp;P1;durP1;ratioP1;P2;durP2;ratioP2
65037;SDS011;51605;47.040;15.294;2023-03-11T00:01:38;2.20;;;1.50;;
65037;SDS011;51605;47.040;15.294;2023-03-11T00:04:05;2.60;;;1.63;;
65037;SDS011;51605;47.040;15.294;2023-03-11T00:06:31;2.22;;;1.48;;
65037;SDS011;51605;47.040;15.294;2023-03-11T00:08:59;2.78;;;1.80;;
65037;SDS011;51605;47.040;15.294;2023-03-11T00:11:25;2.40;;;1.80;;
65037;SDS011;51605;47.040;15.294;2023-03-11T00:13:51;2.30;;;1.48;;
65037;SDS011;51605;47.040;15.294;2023-03-11T00:16:17;2.30;;;1.40;;
65037;SDS011;51605;47.040;15.294;2023-03-11T00:18:42;2.58;;;1.67;;
65037;SDS011;51605;47.040;15.294;2023-03-11T00:21:14;3.50;;;1.77;;
65037;SDS011;51605;47.040;15.294;2023-03-11T00:23:41;2.55;;;1.70;;
65037;SDS011;51605;47.040;15.294;2023-03-11T00:26:07;3.63;;;1.70;;
65037;SDS011;51605;47.040;15.294;2023-03-11T00:28:33;2.45;;;1.50;;
65037;SDS011;51605;47.040;15.294;2023-03-11T00:30:58;2.05;;;1.50;;
65037;SDS011;51605;47.040;15.294;2023-03-11T00:33:24;2.15;;;1.50;;
65037;SDS011;51605;47.040;15.294;2023-03-11T00:35:49;2.65;;;1.60;;
65037;SDS011;51605;47.040;15.294;2023-03-11T00:38:15;2.47;;;1.70;;
65037;SDS011;51605;47.040;15.294;2023-03-11T00:40:45;2.03;;;1.63;;
65037;SDS011;51605;47.040;15.294;2023-03-11T00:43:11;1.75;;;1.38;;
65037;SDS011;51605;47.040;15.294;2023-03-11T00:45:38;1.80;;;1.48;;
65037;SDS011;51605;47.040;15.294;2023-03-11T00:48:04;2.67;;;1.70;;
65037;SDS011;51605;47.040;15.294;2023-03-11T00:50:31;2.22;;;1.50;;
65037;SDS011;51605;47.040;15.294;2023-03-11T00:52:58;2.25;;;1.60;;
65037;SDS011;51605;47.040;15.294;2023-03-11T00:55:25;2.20;;;1.50;;
65037;SDS011;51605;47.040;15.294;2023-03-11T00:57:53;2.75;;;1.70;;
65037;SDS011;51605;47.040;15.294;2023-03-11T01:00:21;2.20;;;1.60;;
65037;SDS011;51605;47.040;15.294;2023-03-11T01:02:48;2.55;;;1.70;;
65037;SDS011;51605;47.040;15.294;2023-03-11T01:05:16;2.38;;;1.50;;
65037;SDS011;51605;47.040;15.294;2023-03-11T01:07:44;3.15;;;1.63;;
65037;SDS011;51605;47.040;15.294;2023-03-11T01:10:10;1.77;;;1.40;;
65037;SDS011;51605;47.040;15.294;2023-03-11T01:12:36;3.42;;;1.77;;
65037;SDS011;51605;47.040;15.294;2023-03-11T01:15:02;2.58;;;1.63;;
65037;SDS011;51605;47.040;15.294;2023-03-11T01:17:30;2.42;;;1.60;;
65037;SDS011;51605;47.040;15.294;2023-03-11T01:19:55;1.95;;;1.35;;
65037;SDS011;51605;47.040;15.294;2023-03-11T01:22:21;2.63;;;1.63;;
65037;SDS011;51605;47.040;15.294;2023-03-11T01:24:47;1.88;;;1.45;;
65037;SDS011;51605;47.040;15.294;2023-03-11T01:27:12;2.78;;;1.65;;
65037;SDS011;51605;47.040;15.294;2023-03-11T01:29:38;2.40;;;1.48;;
65037;SDS011;51605;47.040;15.294;2023-03-11T01:32:04;1.95;;;1.50;;
65037;SDS011;51605;47.040;15.294;2023-03-11T01:34:30;2.17;;;1.50;;
65037;SDS011;51605;47.040;15.294;2023-03-11T01:36:59;2.42;;;1.58;;
65037;SDS011;51605;47.040;15.294;2023-03-11T01:39:26;2.28;;;1.60;;
65037;SDS011;51605;47.040;15.294;2023-03-11T01:41:51;2.00;;;1.60;;
65037;SDS011;51605;47.040;15.294;2023-03-11T01:44:17;2.05;;;1.42;;
65037;SDS011;51605;47.040;15.294;2023-03-11T01:49:18;2.22;;;1.60;;
65037;SDS011;51605;47.040;15.294;2023-03-11T01:51:46;1.85;;;1.50;;
65037;SDS011;51605;47.040;15.294;2023-03-11T01:54:19;1.92;;;1.48;;
65037;SDS011;51605;47.040;15.294;2023-03-11T01:56:48;2.28;;;1.58;;
65037;SDS011;51605;47.040;15.294;2023-03-11T01:59:15;1.60;;;1.30;;
65037;SDS011;51605;47.040;15.294;2023-03-11T02:01:47;1.80;;;1.40;;
65037;SDS011;51605;47.040;15.294;2023-03-11T02:04:18;2.03;;;1.48;;
65037;SDS011;51605;47.040;15.294;2023-03-11T02:06:45;2.10;;;1.50;;
65037;SDS011;51605;47.040;15.294;2023-03-11T02:09:11;1.85;;;1.48;;
65037;SDS011;51605;47.040;15.294;2023-03-11T02:11:36;2.63;;;1.55;;
65037;SDS011;51605;47.040;15.294;2023-03-11T02:14:03;2.50;;;1.42;;
65037;SDS011;51605;47.040;15.294;2023-03-11T02:16:32;1.90;;;1.40;;
65037;SDS011;51605;47.040;15.294;2023-03-11T02:18:59;1.77;;;1.50;;
65037;SDS011;51605;47.040;15.294;2023-03-11T02:21:36;1.60;;;1.33;;
65037;SDS011;51605;47.040;15.294;2023-03-11T02:26:48;1.85;;;1.40;;
65037;SDS011;51605;47.040;15.294;2023-03-11T02:29:29;2.25;;;1.50;;
65037;SDS011;51605;47.040;15.294;2023-03-11T02:31:58;2.00;;;1.55;;
65037;SDS011;51605;47.040;15.294;2023-03-11T02:34:32;2.00;;;1.50;;
65037;SDS011;51605;47.040;15.294;2023-03-11T02:37:00;1.92;;;1.48;;
65037;SDS011;51605;47.040;15.294;2023-03-11T02:39:33;2.03;;;1.40;;
65037;SDS011;51605;47.040;15.294;2023-03-11T02:42:04;1.67;;;1.38;;
65037;SDS011;51605;47.040;15.294;2023-03-11T02:44:34;1.75;;;1.35;;
65037;SDS011;51605;47.040;15.294;2023-03-11T02:47:00;1.60;;;1.20;;
65037;SDS011;51605;47.040;15.294;2023-03-11T02:49:26;2.00;;;1.40;;
65037;SDS011;51605;47.040;15.294;2023-03-11T02:51:52;1.95;;;1.42;;
65037;SDS011;51605;47.040;15.294;2023-03-11T02:54:17;1.67;;;1.30;;
65037;SDS011;51605;47.040;15.294;2023-03-11T02:56:43;1.85;;;1.30;;
65037;SDS011;51605;47.040;15.294;2023-03-11T02:59:09;1.83;;;1.40;;
65037;SDS011;51605;47.040;15.294;2023-03-11T03:01:34;1.90;;;1.40;;
65037;SDS011;51605;47.040;15.294;2023-03-11T03:04:00;2.50;;;1.58;;
65037;SDS011;51605;47.040;15.294;2023-03-11T03:06:25;2.00;;;1.50;;
65037;SDS011;51605;47.040;15.294;2023-03-11T03:08:52;2.70;;;1.50;;
65037;SDS011;51605;47.040;15.294;2023-03-11T03:11:19;1.67;;;1.35;;
65037;SDS011;51605;47.040;15.294;2023-03-11T03:13:44;1.90;;;1.42;;
65037;SDS011;51605;47.040;15.294;2023-03-11T03:16:10;2.13;;;1.40;;
65037;SDS011;51605;47.040;15.294;2023-03-11T03:18:36;1.92;;;1.40;;
65037;SDS011;51605;47.040;15.294;2023-03-11T03:21:02;2.45;;;1.40;;
65037;SDS011;51605;47.040;15.294;2023-03-11T03:23:28;1.73;;;1.38;;
65037;SDS011;51605;47.040;15.294;2023-03-11T03:25:53;2.03;;;1.30;;
65037;SDS011;51605;47.040;15.294;2023-03-11T03:28:19;2.03;;;1.40;;
65037;SDS011;51605;47.040;15.294;2023-03-11T03:30:45;1.90;;;1.20;;
65037;SDS011;51605;47.040;15.294;2023-03-11T03:33:10;2.05;;;1.30;;
65037;SDS011;51605;47.040;15.294;2023-03-11T03:35:39;1.98;;;1.40;;
65037;SDS011;51605;47.040;15.294;2023-03-11T03:38:06;1.60;;;1.30;;
65037;SDS011;51605;47.040;15.294;2023-03-11T03:40:32;2.03;;;1.30;;
65037;SDS011;51605;47.040;15.294;2023-03-11T03:42:57;2.30;;;1.40;;
65037;SDS011;51605;47.040;15.294;2023-03-11T03:45:23;1.55;;;1.27;;
65037;SDS011;51605;47.040;15.294;2023-03-11T03:47:49;1.60;;;1.30;;
65037;SDS011;51605;47.040;15.294;2023-03-11T03:50:14;2.03;;;1.40;;
65037;SDS011;51605;47.040;15.294;2023-03-11T03:52:40;1.40;;;1.20;;
65037;SDS011;51605;47.040;15.294;2023-03-11T03:55:05;1.50;;;1.20;;
65037;SDS011;51605;47.040;15.294;2023-03-11T03:57:31;2.08;;;1.40;;
65037;SDS011;51605;47.040;15.294;2023-03-11T03:59:57;1.30;;;1.10;;
65037;SDS011;51605;47.040;15.294;2023-03-11T04:02:23;1.55;;;1.30;;
65037;SDS011;51605;47.040;15.294;2023-03-11T04:04:48;1.85;;;1.30;;
65037;SDS011;51605;47.040;15.294;2023-03-11T04:07:14;1.50;;;1.20;;
65037;SDS011;51605;47.040;15.294;2023-03-11T04:09:40;1.30;;;1.10;;
65037;SDS011;51605;47.040;15.294;2023-03-11T04:12:07;1.48;;;1.17;;
65037;SDS011;51605;47.040;15.294;2023-03-11T04:14:35;1.67;;;1.27;;
65037;SDS011;51605;47.040;15.294;2023-03-11T04:17:01;1.55;;;1.10;;
65037;SDS011;51605;47.040;15.294;2023-03-11T04:19:29;1.48;;;1.10;;
65037;SDS011;51605;47.040;15.294;2023-03-11T04:21:56;2.30;;;1.30;;
65037;SDS011;51605;47.040;15.294;2023-03-11T04:24:22;1.65;;;1.20;;
65037;SDS011;51605;47.040;15.294;2023-03-11T04:26:48;1.38;;;1.27;;
65037;SDS011;51605;47.040;15.294;2023-03-11T04:29:13;2.00;;;1.23;;
65037;SDS011;51605;47.040;15.294;2023-03-11T04:31:39;1.45;;;1.20;;
65037;SDS011;51605;47.040;15.294;2023-03-11T04:34:05;1.92;;;1.10;;
65037;SDS011;51605;47.040;15.294;2023-03-11T04:36:31;1.95;;;1.40;;
65037;SDS011;51605;47.040;15.294;2023-03-11T04:38:56;1.55;;;1.20;;
65037;SDS011;51605;47.040;15.294;2023-03-11T04:41:22;1.30;;;1.10;;
65037;SDS011;51605;47.040;15.294;2023-03-11T04:43:48;1.55;;;1.10;;
65037;SDS011;51605;47.040;15.294;2023-03-11T04:46:14;2.42;;;1.30;;
65037;SDS011;51605;47.040;15.294;2023-03-11T04:48:39;1.80;;;1.23;;
65037;SDS011;51605;47.040;15.294;2023-03-11T04:51:05;1.42;;;1.15;;
65037;SDS011;51605;47.040;15.294;2023-03-11T04:53:31;1.55;;;1.13;;
65037;SDS011;51605;47.040;15.294;2023-03-11T04:55:57;1.52;;;1.20;;
65037;SDS011;51605;47.040;15.294;2023-03-11T04:58:23;1.40;;;1.13;;
65037;SDS011;51605;47.040;15.294;2023-03-11T05:00:48;1.35;;;1.10;;
65037;SDS011;51605;47.040;15.294;2023-03-11T05:03:14;1.65;;;1.30;;
65037;SDS011;51605;47.040;15.294;2023-03-11T05:05:40;1.60;;;1.30;;
65037;SDS011;51605;47.040;15.294;2023-03-11T05:08:05;2.05;;;1.10;;
65037;SDS011;51605;47.040;15.294;2023-03-11T05:10:31;1.77;;;1.20;;
65037;SDS011;51605;47.040;15.294;2023-03-11T05:12:57;1.48;;;1.10;;
65037;SDS011;51605;47.040;15.294;2023-03-11T05:15:23;1.42;;;1.10;;
65037;SDS011;51605;47.040;15.294;2023-03-11T05:17:48;1.33;;;1.10;;
65037;SDS011;51605;47.040;15.294;2023-03-11T05:20:14;1.90;;;1.10;;
65037;SDS011;51605;47.040;15.294;2023-03-11T05:22:40;2.65;;;1.20;;
65037;SDS011;51605;47.040;15.294;2023-03-11T05:25:05;1.40;;;1.10;;
65037;SDS011;51605;47.040;15.294;2023-03-11T05:27:31;1.53;;;1.17;;
65037;SDS011;51605;47.040;15.294;2023-03-11T05:29:57;1.63;;;1.08;;
65037;SDS011;51605;47.040;15.294;2023-03-11T05:32:23;1.50;;;1.08;;
65037;SDS011;51605;47.040;15.294;2023-03-11T05:34:49;1.25;;;1.05;;
65037;SDS011;51605;47.040;15.294;2023-03-11T05:39:41;2.17;;;1.35;;
65037;SDS011;51605;47.040;15.294;2023-03-11T05:42:07;1.30;;;1.20;;
65037;SDS011;51605;47.040;15.294;2023-03-11T05:44:33;1.70;;;1.27;;
65037;SDS011;51605;47.040;15.294;2023-03-11T05:46:59;1.73;;;1.20;;
65037;SDS011;51605;47.040;15.294;2023-03-11T05:49:24;1.60;;;1.20;;
65037;SDS011;51605;47.040;15.294;2023-03-11T05:51:51;1.48;;;1.13;;
65037;SDS011;51605;47.040;15.294;2023-03-11T05:54:18;1.42;;;1.10;;
65037;SDS011;51605;47.040;15.294;2023-03-11T05:56:45;1.40;;;1.05;;
65037;SDS011;51605;47.040;15.294;2023-03-11T05:59:11;1.55;;;1.10;;
65037;SDS011;51605;47.040;15.294;2023-03-11T06:01:38;2.25;;;1.27;;
65037;SDS011;51605;47.040;15.294;2023-03-11T06:04:05;1.50;;;1.10;;
65037;SDS011;51605;47.040;15.294;2023-03-11T06:06:31;1.80;;;1.10;;
65037;SDS011;51605;47.040;15.294;2023-03-11T06:08:57;1.58;;;1.30;;
65037;SDS011;51605;47.040;15.294;2023-03-11T06:11:22;4.22;;;1.17;;
65037;SDS011;51605;47.040;15.294;2023-03-11T06:13:51;1.38;;;1.10;;
65037;SDS011;51605;47.040;15.294;2023-03-11T06:16:18;1.35;;;1.10;;
65037;SDS011;51605;47.040;15.294;2023-03-11T06:18:45;1.60;;;1.30;;
65037;SDS011;51605;47.040;15.294;2023-03-11T06:21:14;1.25;;;1.10;;
65037;SDS011;51605;47.040;15.294;2023-03-11T06:23:42;2.10;;;1.17;;
65037;SDS011;51605;47.040;15.294;2023-03-11T06:26:09;1.45;;;1.20;;
65037;SDS011;51605;47.040;15.294;2023-03-11T06:28:37;1.42;;;1.10;;
65037;SDS011;51605;47.040;15.294;2023-03-11T06:31:06;1.75;;;1.17;;
65037;SDS011;51605;47.040;15.294;2023-03-11T06:33:33;1.42;;;1.00;;
65037;SDS011;51605;47.040;15.294;2023-03-11T06:36:00;2.53;;;1.20;;
65037;SDS011;51605;47.040;15.294;2023-03-11T06:38:26;3.42;;;1.40;;
65037;SDS011;51605;47.040;15.294;2023-03-11T06:40:52;1.13;;;0.95;;
65037;SDS011;51605;47.040;15.294;2023-03-11T06:43:18;1.65;;;1.25;;
65037;SDS011;51605;47.040;15.294;2023-03-11T06:45:44;1.67;;;1.02;;
65037;SDS011;51605;47.040;15.294;2023-03-11T06:48:09;1.23;;;0.93;;
65037;SDS011;51605;47.040;15.294;2023-03-11T06:50:35;1.67;;;1.10;;
65037;SDS011;51605;47.040;15.294;2023-03-11T06:53:01;5.57;;;1.20;;
65037;SDS011;51605;47.040;15.294;2023-03-11T06:55:30;1.77;;;1.20;;
65037;SDS011;51605;47.040;15.294;2023-03-11T06:57:56;4.68;;;1.13;;
65037;SDS011;51605;47.040;15.294;2023-03-11T07:00:21;1.17;;;0.95;;
65037;SDS011;51605;47.040;15.294;2023-03-11T07:02:47;1.45;;;1.00;;
65037;SDS011;51605;47.040;15.294;2023-03-11T07:05:13;2.25;;;1.10;;
65037;SDS011;51605;47.040;15.294;2023-03-11T07:07:38;1.75;;;1.10;;
65037;SDS011;51605;47.040;15.294;2023-03-11T07:10:04;2.72;;;1.10;;
65037;SDS011;51605;47.040;15.294;2023-03-11T07:12:30;3.33;;;1.20;;
65037;SDS011;51605;47.040;15.294;2023-03-11T07:14:56;1.80;;;1.10;;
65037;SDS011;51605;47.040;15.294;2023-03-11T07:17:23;2.85;;;1.00;;
65037;SDS011;51605;47.040;15.294;2023-03-11T07:19:49;2.15;;;1.02;;
65037;SDS011;51605;47.040;15.294;2023-03-11T07:22:15;1.67;;;1.10;;
65037;SDS011;51605;47.040;15.294;2023-03-11T07:24:44;1.65;;;1.00;;
65037;SDS011;51605;47.040;15.294;2023-03-11T07:27:10;2.10;;;1.17;;
65037;SDS011;51605;47.040;15.294;2023-03-11T07:29:36;1.40;;;1.00;;
65037;SDS011;51605;47.040;15.294;2023-03-11T07:32:02;1.65;;;1.00;;
65037;SDS011;51605;47.040;15.294;2023-03-11T07:34:27;2.22;;;1.10;;
65037;SDS011;51605;47.040;15.294;2023-03-11T07:36:53;1.38;;;1.08;;
65037;SDS011;51605;47.040;15.294;2023-03-11T07:39:19;1.27;;;1.02;;
65037;SDS011;51605;47.040;15.294;2023-03-11T07:41:44;2.00;;;1.02;;
65037;SDS011;51605;47.040;15.294;2023-03-11T07:44:11;1.20;;;1.00;;
65037;SDS011;51605;47.040;15.294;2023-03-11T07:46:38;1.83;;;1.10;;
65037;SDS011;51605;47.040;15.294;2023-03-11T07:49:03;1.38;;;1.10;;
65037;SDS011;51605;47.040;15.294;2023-03-11T07:51:30;2.13;;;1.30;;
65037;SDS011;51605;47.040;15.294;2023-03-11T07:53:58;1.40;;;1.00;;
65037;SDS011;51605;47.040;15.294;2023-03-11T07:56:25;2.03;;;1.25;;
65037;SDS011;51605;47.040;15.294;2023-03-11T07:58:52;2.08;;;1.13;;
65037;SDS011;51605;47.040;15.294;2023-03-11T08:01:19;3.08;;;1.10;;
65037;SDS011;51605;47.040;15.294;2023-03-11T08:03:47;2.00;;;1.25;;
65037;SDS011;51605;47.040;15.294;2023-03-11T08:06:15;2.88;;;1.30;;
65037;SDS011;51605;47.040;15.294;2023-03-11T08:08:46;1.45;;;1.08;;
65037;SDS011;51605;47.040;15.294;2023-03-11T08:11:12;1.50;;;1.10;;
65037;SDS011;51605;47.040;15.294;2023-03-11T08:13:40;1.60;;;1.20;;
65037;SDS011;51605;47.040;15.294;2023-03-11T08:16:07;1.85;;;1.40;;
65037;SDS011;51605;47.040;15.294;2023-03-11T08:21:02;1.70;;;1.10;;
65037;SDS011;51605;47.040;15.294;2023-03-11T08:23:29;2.15;;;1.30;;
65037;SDS011;51605;47.040;15.294;2023-03-11T08:25:55;1.45;;;1.10;;
65037;SDS011;51605;47.040;15.294;2023-03-11T08:28:20;1.55;;;1.10;;
65037;SDS011;51605;47.040;15.294;2023-03-11T08:30:46;1.95;;;1.10;;
65037;SDS011;51605;47.040;15.294;2023-03-11T08:33:11;2.65;;;1.40;;
65037;SDS011;51605;47.040;15.294;2023-03-11T08:35:37;1.23;;;1.00;;
65037;SDS011;51605;47.040;15.294;2023-03-11T08:38:03;1.73;;;1.20;;
65037;SDS011;51605;47.040;15.294;2023-03-11T08:40:28;1.92;;;1.13;;
65037;SDS011;51605;47.040;15.294;2023-03-11T08:42:54;2.70;;;1.20;;
65037;SDS011;51605;47.040;15.294;2023-03-11T08:45:20;1.85;;;1.30;;
65037;SDS011;51605;47.040;15.294;2023-03-11T08:47:46;1.55;;;1.15;;
65037;SDS011;51605;47.040;15.294;2023-03-11T08:50:14;2.03;;;1.23;;
65037;SDS011;51605;47.040;15.294;2023-03-11T08:52:41;4.32;;;1.40;;
65037;SDS011;51605;47.040;15.294;2023-03-11T08:55:07;1.80;;;1.20;;
65037;SDS011;51605;47.040;15.294;2023-03-11T08:57:35;1.95;;;1.10;;
65037;SDS011;51605;47.040;15.294;2023-03-11T09:00:02;1.88;;;1.15;;
65037;SDS011;51605;47.040;15.294;2023-03-11T09:02:29;2.25;;;1.20;;
65037;SDS011;51605;47.040;15.294;2023-03-11T09:04:54;1.75;;;1.13;;
65037;SDS011;51605;47.040;15.294;2023-03-11T09:07:20;1.90;;;1.20;;
65037;SDS011;51605;47.040;15.294;2023-03-11T09:09:46;1.52;;;1.17;;
65037;SDS011;51605;47.040;15.294;2023-03-11T09:12:12;2.03;;;1.15;;
65037;SDS011;51605;47.040;15.294;2023-03-11T09:14:40;1.80;;;1.40;;
65037;SDS011;51605;47.040;15.294;2023-03-11T09:17:07;1.60;;;1.00;;
65037;SDS011;51605;47.040;15.294;2023-03-11T09:19:34;1.70;;;1.25;;
65037;SDS011;51605;47.040;15.294;2023-03-11T09:22:00;1.58;;;1.30;;
65037;SDS011;51605;47.040;15.294;2023-03-11T09:24:26;2.10;;;1.58;;
65037;SDS011;51605;47.040;15.294;2023-03-11T09:26:52;1.88;;;1.20;;
65037;SDS011;51605;47.040;15.294;2023-03-11T09:29:18;1.60;;;1.17;;
65037;SDS011;51605;47.040;15.294;2023-03-11T09:31:44;2.22;;;1.40;;
65037;SDS011;51605;47.040;15.294;2023-03-11T09:34:10;1.55;;;1.20;;
65037;SDS011;51605;47.040;15.294;2023-03-11T09:36:37;1.77;;;1.20;;
65037;SDS011;51605;47.040;15.294;2023-03-11T09:39:05;2.03;;;1.27;;
65037;SDS011;51605;47.040;15.294;2023-03-11T09:44:43;2.00;;;1.15;;
65037;SDS011;51605;47.040;15.294;2023-03-11T09:47:35;1.65;;;1.30;;
65037;SDS011;51605;47.040;15.294;2023-03-11T09:50:27;2.13;;;1.20;;
65037;SDS011;51605;47.040;15.294;2023-03-11T09:52:57;1.85;;;1.38;;
65037;SDS011;51605;47.040;15.294;2023-03-11T09:55:54;1.98;;;1.40;;
65037;SDS011;51605;47.040;15.294;2023-03-11T10:00:46;1.50;;;1.20;;
65037;SDS011;51605;47.040;15.294;2023-03-11T10:03:16;1.52;;;1.08;;
65037;SDS011;51605;47.040;15.294;2023-03-11T10:06:10;1.75;;;1.30;;
65037;SDS011;51605;47.040;15.294;2023-03-11T10:08:41;1.40;;;1.10;;
65037;SDS011;51605;47.040;15.294;2023-03-11T10:11:29;1.70;;;1.20;;
65037;SDS011;51605;47.040;15.294;2023-03-11T10:25:03;1.33;;;1.10;;
65037;SDS011;51605;47.040;15.294;2023-03-11T10:30:26;1.52;;;1.10;;
65037;SDS011;51605;47.040;15.294;2023-03-11T10:35:45;1.60;;;1.25;;
65037;SDS011;51605;47.040;15.294;2023-03-11T10:38:17;2.30;;;1.20;;
65037;SDS011;51605;47.040;15.294;2023-03-11T10:40:47;2.35;;;1.08;;
65037;SDS011;51605;47.040;15.294;2023-03-11T10:43:16;2.75;;;1.20;;
65037;SDS011;51605;47.040;15.294;2023-03-11T10:45:46;1.63;;;1.17;;
65037;SDS011;51605;47.040;15.294;2023-03-11T10:48:16;1.73;;;1.17;;
65037;SDS011;51605;47.040;15.294;2023-03-11T10:53:27;1.90;;;1.20;;
65037;SDS011;51605;47.040;15.294;2023-03-11T10:55:54;3.75;;;1.27;;
65037;SDS011;51605;47.040;15.294;2023-03-11T10:58:30;2.35;;;1.20;;
65037;SDS011;51605;47.040;15.294;2023-03-11T11:03:26;1.70;;;1.08;;
65037;SDS011;51605;47.040;15.294;2023-03-11T11:06:00;1.48;;;1.20;;
65037;SDS011;51605;47.040;15.294;2023-03-11T11:08:28;1.55;;;1.15;;
65037;SDS011;51605;47.040;15.294;2023-03-11T11:10:56;3.85;;;1.30;;
65037;SDS011;51605;47.040;15.294;2023-03-11T11:13:24;1.70;;;1.30;;
65037;SDS011;51605;47.040;15.294;2023-03-11T11:16:02;1.23;;;1.00;;
65037;SDS011;51605;47.040;15.294;2023-03-11T11:21:27;2.03;;;1.30;;
65037;SDS011;51605;47.040;15.294;2023-03-11T11:29:35;1.80;;;1.20;;
65037;SDS011;51605;47.040;15.294;2023-03-11T11:32:43;2.17;;;1.20;;
65037;SDS011;51605;47.040;15.294;2023-03-11T11:34:55;2.20;;;1.50;;
65037;SDS011;51605;47.040;15.294;2023-03-11T11:37:26;2.22;;;1.25;;
65037;SDS011;51605;47.040;15.294;2023-03-11T11:40:03;1.63;;;1.20;;
65037;SDS011;51605;47.040;15.294;2023-03-11T11:42:35;2.83;;;1.23;;
65037;SDS011;51605;47.040;15.294;2023-03-11T11:47:48;2.75;;;1.30;;
65037;SDS011;51605;47.040;15.294;2023-03-11T11:50:34;3.00;;;1.35;;
65037;SDS011;51605;47.040;15.294;2023-03-11T11:53:18;1.90;;;1.40;;
65037;SDS011;51605;47.040;15.294;2023-03-11T11:55:55;2.08;;;1.30;;
65037;SDS011;51605;47.040;15.294;2023-03-11T11:58:20;4.45;;;1.77;;
65037;SDS011;51605;47.040;15.294;2023-03-11T12:11:41;3.25;;;1.52;;
65037;SDS011;51605;47.040;15.294;2023-03-11T12:16:54;3.38;;;1.48;;
65037;SDS011;51605;47.040;15.294;2023-03-11T12:19:27;3.05;;;1.50;;
65037;SDS011;51605;47.040;15.294;2023-03-11T12:27:26;5.55;;;1.63;;
65037;SDS011;51605;47.040;15.294;2023-03-11T12:32:47;2.70;;;1.50;;
65037;SDS011;51605;47.040;15.294;2023-03-11T12:35:27;3.03;;;1.60;;
65037;SDS011;51605;47.040;15.294;2023-03-11T12:38:16;3.58;;;1.77;;
65037;SDS011;51605;47.040;15.294;2023-03-11T12:40:47;5.07;;;2.00;;
65037;SDS011;51605;47.040;15.294;2023-03-11T12:46:07;3.22;;;1.40;;
65037;SDS011;51605;47.040;15.294;2023-03-11T12:48:45;3.15;;;1.70;;
65037;SDS011;51605;47.040;15.294;2023-03-11T12:53:51;3.28;;;1.45;;
65037;SDS011;51605;47.040;15.294;2023-03-11T13:10:04;2.63;;;1.48;;
65037;SDS011;51605;47.040;15.294;2023-03-11T13:31:21;2.42;;;1.50;;
65037;SDS011;51605;47.040;15.294;2023-03-11T13:37:21;4.15;;;1.60;;
65037;SDS011;51605;47.040;15.294;2023-03-11T13:42:42;3.58;;;1.60;;
65037;SDS011;51605;47.040;15.294;2023-03-11T13:45:29;3.17;;;1.58;;
65037;SDS011;51605;47.040;15.294;2023-03-11T13:50:34;2.60;;;1.40;;
65037;SDS011;51605;47.040;15.294;2023-03-11T13:53:06;3.08;;;1.30;;
65037;SDS011;51605;47.040;15.294;2023-03-11T13:55:34;2.25;;;1.42;;
65037;SDS011;51605;47.040;15.294;2023-03-11T13:58:14;3.45;;;1.52;;
65037;SDS011;51605;47.040;15.294;2023-03-11T14:00:53;3.20;;;1.50;;
65037;SDS011;51605;47.040;15.294;2023-03-11T14:03:21;2.75;;;1.50;;
65037;SDS011;51605;47.040;15.294;2023-03-11T14:05:54;3.70;;;1.50;;
65037;SDS011;51605;47.040;15.294;2023-03-11T14:08:30;3.15;;;1.42;;
65037;SDS011;51605;47.040;15.294;2023-03-11T14:13:43;2.15;;;1.40;;
65037;SDS011;51605;47.040;15.294;2023-03-11T14:18:46;3.15;;;1.50;;
65037;SDS011;51605;47.040;15.294;2023-03-11T14:21:24;2.95;;;1.50;;
65037;SDS011;51605;47.040;15.294;2023-03-11T14:23:52;4.70;;;1.60;;
65037;SDS011;51605;47.040;15.294;2023-03-11T14:26:23;6.43;;;1.50;;
65037;SDS011;51605;47.040;15.294;2023-03-11T14:28:54;2.78;;;1.67;;
65037;SDS011;51605;47.040;15.294;2023-03-11T14:31:22;2.78;;;1.50;;
65037;SDS011;51605;47.040;15.294;2023-03-11T14:33:57;3.05;;;1.30;;
65037;SDS011;51605;47.040;15.294;2023-03-11T14:36:45;3.55;;;1.40;;
65037;SDS011;51605;47.040;15.294;2023-03-11T14:39:36;5.00;;;1.30;;
65037;SDS011;51605;47.040;15.294;2023-03-11T14:42:15;3.05;;;1.25;;
65037;SDS011;51605;47.040;15.294;2023-03-11T14:50:19;4.30;;;1.40;;
65037;SDS011;51605;47.040;15.294;2023-03-11T14:55:21;2.42;;;1.40;;
65037;SDS011;51605;47.040;15.294;2023-03-11T15:01:33;2.67;;;1.45;;
65037;SDS011;51605;47.040;15.294;2023-03-11T15:03:44;3.70;;;1.30;;
65037;SDS011;51605;47.040;15.294;2023-03-11T15:06:11;2.60;;;1.40;;
65037;SDS011;51605;47.040;15.294;2023-03-11T15:08:45;2.70;;;1.30;;
65037;SDS011;51605;47.040;15.294;2023-03-11T15:13:41;2.67;;;1.30;;
65037;SDS011;51605;47.040;15.294;2023-03-11T15:16:21;2.88;;;1.30;;
65037;SDS011;51605;47.040;15.294;2023-03-11T15:18:49;3.63;;;1.40;;
65037;SDS011;51605;47.040;15.294;2023-03-11T15:21:16;2.40;;;1.30;;
65037;SDS011;51605;47.040;15.294;2023-03-11T15:23:47;6.07;;;1.40;;
65037;SDS011;51605;47.040;15.294;2023-03-11T15:26:21;2.30;;;1.17;;
65037;SDS011;51605;47.040;15.294;2023-03-11T15:29:32;2.30;;;1.10;;
65037;SDS011;51605;47.040;15.294;2023-03-11T15:31:39;2.58;;;1.40;;
65037;SDS011;51605;47.040;15.294;2023-03-11T15:34:22;2.42;;;1.30;;
65037;SDS011;51605;47.040;15.294;2023-03-11T15:44:36;3.38;;;1.23;;
65037;SDS011;51605;47.040;15.294;2023-03-11T15:47:12;2.58;;;1.40;;
65037;SDS011;51605;47.040;15.294;2023-03-11T15:49:39;5.57;;;1.15;;
65037;SDS011;51605;47.040;15.294;2023-03-11T15:52:05;3.53;;;1.23;;
65037;SDS011;51605;47.040;15.294;2023-03-11T15:54:31;3.92;;;1.50;;
65037;SDS011;51605;47.040;15.294;2023-03-11T15:57:00;3.22;;;1.20;;
65037;SDS011;51605;47.040;15.294;2023-03-11T15:59:30;2.47;;;1.10;;
65037;SDS011;51605;47.040;15.294;2023-03-11T16:01:58;2.55;;;1.15;;
65037;SDS011;51605;47.040;15.294;2023-03-11T16:10:53;3.75;;;1.48;;
65037;SDS011;51605;47.040;15.294;2023-03-11T16:14:00;3.60;;;1.20;;
65037;SDS011;51605;47.040;15.294;2023-03-11T16:17:08;2.92;;;1.10;;
65037;SDS011;51605;47.040;15.294;2023-03-11T16:22:59;3.25;;;1.30;;
65037;SDS011;51605;47.040;15.294;2023-03-11T16:25:38;4.47;;;1.25;;
65037;SDS011;51605;47.040;15.294;2023-03-11T16:30:41;3.57;;;1.03;;
65037;SDS011;51605;47.040;15.294;2023-03-11T16:33:07;3.67;;;1.40;;
65037;SDS011;51605;47.040;15.294;2023-03-11T16:35:32;3.70;;;1.00;;
65037;SDS011;51605;47.040;15.294;2023-03-11T16:37:58;4.38;;;1.30;;
65037;SDS011;51605;47.040;15.294;2023-03-11T16:40:25;4.45;;;1.30;;
65037;SDS011;51605;47.040;15.294;2023-03-11T16:43:08;3.92;;;1.25;;
65037;SDS011;51605;47.040;15.294;2023-03-11T16:45:36;3.72;;;1.35;;
65037;SDS011;51605;47.040;15.294;2023-03-11T16:48:02;2.03;;;1.00;;
65037;SDS011;51605;47.040;15.294;2023-03-11T16:52:55;2.08;;;1.00;;
65037;SDS011;51605;47.040;15.294;2023-03-11T16:55:22;2.03;;;1.05;;
65037;SDS011;51605;47.040;15.294;2023-03-11T16:57:49;5.22;;;1.52;;
65037;SDS011;51605;47.040;15.294;2023-03-11T17:00:15;4.47;;;1.10;;
65037;SDS011;51605;47.040;15.294;2023-03-11T17:05:07;3.63;;;1.10;;
65037;SDS011;51605;47.040;15.294;2023-03-11T17:07:34;2.83;;;1.08;;
65037;SDS011;51605;47.040;15.294;2023-03-11T17:10:00;2.15;;;0.93;;
65037;SDS011;51605;47.040;15.294;2023-03-11T17:12:26;2.42;;;1.15;;
65037;SDS011;51605;47.040;15.294;2023-03-11T17:14:52;3.33;;;1.10;;
65037;SDS011;51605;47.040;15.294;2023-03-11T17:17:19;2.80;;;1.10;;
65037;SDS011;51605;47.040;15.294;2023-03-11T17:19:45;2.85;;;1.10;;
65037;SDS011;51605;47.040;15.294;2023-03-11T17:22:11;2.50;;;1.00;;
65037;SDS011;51605;47.040;15.294;2023-03-11T17:24:37;1.77;;;1.20;;